sensor_id;sensor_type;location;lat;lon;timestamp;pressure;altitude;pressure_sealevel;temperature;humidity
13612;BME280;6877;51.436;6.774;2023-02-17T00:01:36;101603.13;;;9.68;96.67
13612;BME280;6877;51.436;6.774;2023-02-17T00:04:03;101607.47;;;9.69;96.62
13612;BME280;6877;51.436;6.774;2023-02-17T00:06:30;101603.97;;;9.68;96.62
13612;BME280;6877;51.436;6.774;2023-02-17T00:08:57;101608.34;;;9.68;96.95
13612;BME280;6877;51.436;6.774;2023-02-17T00:11:25;101604.84;;;9.66;97.09
13612;BME280;6877;51.436;6.774;2023-02-17T00:13:53;101596.13;;;9.67;97.04
13612;BME280;6877;51.436;6.774;2023-02-17T00:16:22;101602.22;;;9.73;97.05
13612;BME280;6877;51.436;6.774;2023-02-17T00:18:58;101600.47;;;9.75;96.78
13612;BME280;6877;51.436;6.774;2023-02-17T00:21:30;101596.13;;;9.76;96.89
13612;BME280;6877;51.436;6.774;2023-02-17T00:24:02;101597.84;;;9.77;96.76
13612;BME280;6877;51.436;6.774;2023-02-17T00:26:28;101592.63;;;9.80;96.96
13612;BME280;6877;51.436;6.774;2023-02-17T00:28:56;101592.63;;;9.80;96.93
13612;BME280;6877;51.436;6.774;2023-02-17T00:31:23;101599.59;;;9.86;96.26
13612;BME280;6877;51.436;6.774;2023-02-17T00:33:55;101593.47;;;9.88;96.09
13612;BME280;6877;51.436;6.774;2023-02-17T00:36:22;101587.34;;;9.92;96.06
13612;BME280;6877;51.436;6.774;2023-02-17T00:38:55;101588.22;;;9.96;95.79
13612;BME280;6877;51.436;6.774;2023-02-17T00:41:23;101593.47;;;9.97;95.58
13612;BME280;6877;51.436;6.774;2023-02-17T00:43:50;101599.56;;;10.00;95.67
13612;BME280;6877;51.436;6.774;2023-02-17T00:46:17;101596.97;;;10.00;95.68
13612;BME280;6877;51.436;6.774;2023-02-17T00:48:45;101599.56;;;10.00;95.82
13612;BME280;6877;51.436;6.774;2023-02-17T00:51:13;101593.47;;;9.97;95.84
13612;BME280;6877;51.436;6.774;2023-02-17T00:53:40;101589.09;;;9.98;96.07
13612;BME280;6877;51.436;6.774;2023-02-17T00:56:12;101588.22;;;9.99;95.96
13612;BME280;6877;51.436;6.774;2023-02-17T00:58:43;101584.75;;;9.95;96.48
13612;BME280;6877;51.436;6.774;2023-02-17T01:01:11;101588.25;;;9.91;97.08
13612;BME280;6877;51.436;6.774;2023-02-17T01:03:38;101579.56;;;9.82;97.93
13612;BME280;6877;51.436;6.774;2023-02-17T01:06:19;101572.59;;;9.73;98.58
13612;BME280;6877;51.436;6.774;2023-02-17T01:08:46;101570.00;;;9.67;99.08
13612;BME280;6877;51.436;6.774;2023-02-17T01:11:18;101571.75;;;9.65;99.97
13612;BME280;6877;51.436;6.774;2023-02-17T01:13:44;101565.63;;;9.61;100.00
13612;BME280;6877;51.436;6.774;2023-02-17T01:16:44;101568.28;;;9.57;100.00
13612;BME280;6877;51.436;6.774;2023-02-17T01:19:17;101563.06;;;9.52;100.00
13612;BME280;6877;51.436;6.774;2023-02-17T01:21:44;101568.28;;;9.47;100.00
13612;BME280;6877;51.436;6.774;2023-02-17T01:24:11;101563.94;;;9.43;100.00
13612;BME280;6877;51.436;6.774;2023-02-17T01:26:43;101565.69;;;9.43;100.00
13612;BME280;6877;51.436;6.774;2023-02-17T01:29:09;101568.28;;;9.41;100.00
13612;BME280;6877;51.436;6.774;2023-02-17T01:31:36;101565.66;;;9.38;100.00
13612;BME280;6877;51.436;6.774;2023-02-17T01:34:04;101558.72;;;9.34;100.00
13612;BME280;6877;51.436;6.774;2023-02-17T01:36:35;101560.47;;;9.34;100.00
13612;BME280;6877;51.436;6.774;2023-02-17T01:39:02;101552.59;;;9.35;100.00
13612;BME280;6877;51.436;6.774;2023-02-17T01:41:33;101548.28;;;9.37;100.00
13612;BME280;6877;51.436;6.774;2023-02-17T01:44:14;101550.88;;;9.37;100.00
13612;BME280;6877;51.436;6.774;2023-02-17T01:46:43;101538.69;;;9.33;100.00
13612;BME280;6877;51.436;6.774;2023-02-17T01:49:34;101544.78;;;9.31;100.00
13612;BME280;6877;51.436;6.774;2023-02-17T01:52:34;101536.09;;;9.27;100.00
13612;BME280;6877;51.436;6.774;2023-02-17T01:55:05;101536.06;;;9.25;100.00
13612;BME280;6877;51.436;6.774;2023-02-17T01:57:34;101526.50;;;9.23;100.00
13612;BME280;6877;51.436;6.774;2023-02-17T02:00:09;101524.75;;;9.22;100.00
13612;BME280;6877;51.436;6.774;2023-02-17T02:02:41;101527.34;;;9.20;100.00
13612;BME280;6877;51.436;6.774;2023-02-17T02:05:16;101516.94;;;9.19;100.00
13612;BME280;6877;51.436;6.774;2023-02-17T02:07:45;101519.53;;;9.19;100.00
13612;BME280;6877;51.436;6.774;2023-02-17T02:10:13;101514.31;;;9.20;100.00
13612;BME280;6877;51.436;6.774;2023-02-17T02:12:41;101515.19;;;9.22;100.00
13612;BME280;6877;51.436;6.774;2023-02-17T02:15:11;101519.53;;;9.23;100.00
13612;BME280;6877;51.436;6.774;2023-02-17T02:34:54;101499.47;;;9.45;100.00
13612;BME280;6877;51.436;6.774;2023-02-17T02:37:25;101499.47;;;9.48;100.00
13612;BME280;6877;51.436;6.774;2023-02-17T02:39:56;101503.84;;;9.52;100.00
13612;BME280;6877;51.436;6.774;2023-02-17T02:42:26;101493.38;;;9.56;100.00
13612;BME280;6877;51.436;6.774;2023-02-17T02:44:58;101499.44;;;9.61;100.00
13612;BME280;6877;51.436;6.774;2023-02-17T02:50:05;101484.63;;;9.66;100.00
13612;BME280;6877;51.436;6.774;2023-02-17T03:03:43;101468.88;;;9.84;100.00
13612;BME280;6877;51.436;6.774;2023-02-17T03:06:21;101468.00;;;9.87;100.00
13612;BME280;6877;51.436;6.774;2023-02-17T03:09:11;101465.38;;;9.88;100.00
13612;BME280;6877;51.436;6.774;2023-02-17T03:11:39;101463.66;;;9.87;100.00
13612;BME280;6877;51.436;6.774;2023-02-17T03:14:09;101454.91;;;9.88;100.00
13612;BME280;6877;51.436;6.774;2023-02-17T03:16:37;101455.78;;;9.89;100.00
13612;BME280;6877;51.436;6.774;2023-02-17T03:19:05;101453.19;;;9.87;100.00
13612;BME280;6877;51.436;6.774;2023-02-17T03:21:42;101467.09;;;9.89;100.00
13612;BME280;6877;51.436;6.774;2023-02-17T03:24:11;101456.66;;;9.89;99.99
13612;BME280;6877;51.436;6.774;2023-02-17T03:26:38;101460.16;;;9.88;99.81
13612;BME280;6877;51.436;6.774;2023-02-17T03:29:09;101444.47;;;9.88;99.66
13612;BME280;6877;51.436;6.774;2023-02-17T03:31:36;101463.63;;;9.90;99.39
13612;BME280;6877;51.436;6.774;2023-02-17T03:34:07;101454.91;;;9.91;99.43
13612;BME280;6877;51.436;6.774;2023-02-17T03:36:39;101461.84;;;9.92;99.34
13612;BME280;6877;51.436;6.774;2023-02-17T03:39:05;101456.63;;;9.95;99.04
13612;BME280;6877;51.436;6.774;2023-02-17T03:41:37;101447.91;;;9.96;98.94
13612;BME280;6877;51.436;6.774;2023-02-17T03:44:03;101460.09;;;9.99;98.68
13612;BME280;6877;51.436;6.774;2023-02-17T03:46:30;101466.19;;;9.98;98.55
13612;BME280;6877;51.436;6.774;2023-02-17T03:49:01;101465.34;;;9.97;98.62
13612;BME280;6877;51.436;6.774;2023-02-17T03:51:32;101458.38;;;9.96;98.35
13612;BME280;6877;51.436;6.774;2023-02-17T03:54:04;101463.59;;;10.00;98.13
13612;BME280;6877;51.436;6.774;2023-02-17T03:56:31;101467.06;;;10.00;98.21
13612;BME280;6877;51.436;6.774;2023-02-17T03:58:57;101456.59;;;10.02;97.92
13612;BME280;6877;51.436;6.774;2023-02-17T04:01:29;101461.81;;;10.02;97.84
13612;BME280;6877;51.436;6.774;2023-02-17T04:03:56;101466.19;;;10.01;97.70
13612;BME280;6877;51.436;6.774;2023-02-17T04:06:27;101467.06;;;10.00;97.81
13612;BME280;6877;51.436;6.774;2023-02-17T04:08:53;101467.91;;;10.04;97.54
13612;BME280;6877;51.436;6.774;2023-02-17T04:11:25;101477.50;;;10.05;97.19
13612;BME280;6877;51.436;6.774;2023-02-17T04:13:51;101481.00;;;10.04;97.14
13612;BME280;6877;51.436;6.774;2023-02-17T04:16:18;101485.38;;;10.03;97.36
13612;BME280;6877;51.436;6.774;2023-02-17T04:18:44;101487.97;;;10.03;97.23
13612;BME280;6877;51.436;6.774;2023-02-17T04:21:11;101470.50;;;10.05;97.19
13612;BME280;6877;51.436;6.774;2023-02-17T04:23:43;101474.03;;;10.06;97.04
13612;BME280;6877;51.436;6.774;2023-02-17T04:26:09;101472.28;;;10.06;96.75
13612;BME280;6877;51.436;6.774;2023-02-17T04:28:40;101465.28;;;10.07;96.74
13612;BME280;6877;51.436;6.774;2023-02-17T04:31:12;101458.34;;;10.06;96.67
13612;BME280;6877;51.436;6.774;2023-02-17T04:33:38;101460.94;;;10.07;96.39
13612;BME280;6877;51.436;6.774;2023-02-17T04:36:05;101453.94;;;10.08;96.51
13612;BME280;6877;51.436;6.774;2023-02-17T04:38:37;101454.84;;;10.07;96.50
13612;BME280;6877;51.436;6.774;2023-02-17T04:41:08;101456.56;;;10.09;96.06
13612;BME280;6877;51.436;6.774;2023-02-17T04:43:40;101449.59;;;10.08;95.87
13612;BME280;6877;51.436;6.774;2023-02-17T04:46:06;101450.44;;;10.12;95.85
13612;BME280;6877;51.436;6.774;2023-02-17T04:48:33;101448.69;;;10.14;95.68
13612;BME280;6877;51.436;6.774;2023-02-17T04:51:04;101455.66;;;10.13;95.39
13612;BME280;6877;51.436;6.774;2023-02-17T04:53:31;101454.81;;;10.13;95.26
13612;BME280;6877;51.436;6.774;2023-02-17T04:56:03;101465.25;;;10.13;95.17
13612;BME280;6877;51.436;6.774;2023-02-17T04:58:34;101471.34;;;10.12;95.09
13612;BME280;6877;51.436;6.774;2023-02-17T05:01:06;101467.88;;;10.11;95.20
13612;BME280;6877;51.436;6.774;2023-02-17T05:03:33;101460.03;;;10.13;95.07
13612;BME280;6877;51.436;6.774;2023-02-17T05:05:59;101460.03;;;10.13;94.99
13612;BME280;6877;51.436;6.774;2023-02-17T05:08:30;101461.75;;;10.14;94.74
13612;BME280;6877;51.436;6.774;2023-02-17T05:11:02;101453.91;;;10.14;94.69
13612;BME280;6877;51.436;6.774;2023-02-17T05:13:33;101451.31;;;10.14;94.33
13612;BME280;6877;51.436;6.774;2023-02-17T05:16:05;101443.44;;;10.14;93.93
13612;BME280;6877;51.436;6.774;2023-02-17T05:18:31;101440.84;;;10.14;93.41
13612;BME280;6877;51.436;6.774;2023-02-17T05:20:57;101448.69;;;10.15;92.91
13612;BME280;6877;51.436;6.774;2023-02-17T05:23:24;101460.03;;;10.16;92.58
13612;BME280;6877;51.436;6.774;2023-02-17T05:25:50;101445.19;;;10.19;92.19
13612;BME280;6877;51.436;6.774;2023-02-17T05:28:22;101459.97;;;10.22;91.91
13612;BME280;6877;51.436;6.774;2023-02-17T05:30:49;101448.66;;;10.21;92.02
13612;BME280;6877;51.436;6.774;2023-02-17T05:33:15;101441.66;;;10.24;91.84
13612;BME280;6877;51.436;6.774;2023-02-17T05:35:47;101430.34;;;10.26;91.79
13612;BME280;6877;51.436;6.774;2023-02-17T05:38:13;101438.19;;;10.25;91.90
13612;BME280;6877;51.436;6.774;2023-02-17T05:40:39;101433.81;;;10.22;92.25
13612;BME280;6877;51.436;6.774;2023-02-17T05:43:06;101437.31;;;10.21;92.33
13612;BME280;6877;51.436;6.774;2023-02-17T05:45:32;101446.03;;;10.20;92.73
13612;BME280;6877;51.436;6.774;2023-02-17T05:47:59;101437.31;;;10.19;92.79
13612;BME280;6877;51.436;6.774;2023-02-17T05:50:25;101443.44;;;10.21;93.13
13612;BME280;6877;51.436;6.774;2023-02-17T05:52:57;101449.53;;;10.22;93.14
13612;BME280;6877;51.436;6.774;2023-02-17T05:55:23;101445.16;;;10.23;93.38
13612;BME280;6877;51.436;6.774;2023-02-17T05:57:54;101440.78;;;10.23;93.49
13612;BME280;6877;51.436;6.774;2023-02-17T06:00:21;101444.28;;;10.25;93.25
13612;BME280;6877;51.436;6.774;2023-02-17T06:02:47;101430.34;;;10.26;93.08
13612;BME280;6877;51.436;6.774;2023-02-17T06:05:19;101428.56;;;10.25;92.88
13612;BME280;6877;51.436;6.774;2023-02-17T06:07:45;101425.09;;;10.23;93.07
13612;BME280;6877;51.436;6.774;2023-02-17T06:10:12;101419.84;;;10.23;93.22
13612;BME280;6877;51.436;6.774;2023-02-17T06:12:39;101425.09;;;10.23;93.31
13612;BME280;6877;51.436;6.774;2023-02-17T06:15:05;101418.13;;;10.22;93.27
13612;BME280;6877;51.436;6.774;2023-02-17T06:17:32;101425.97;;;10.22;93.50
13612;BME280;6877;51.436;6.774;2023-02-17T06:19:58;101430.31;;;10.23;93.54
13612;BME280;6877;51.436;6.774;2023-02-17T06:22:30;101436.41;;;10.24;93.66
13612;BME280;6877;51.436;6.774;2023-02-17T06:25:01;101431.19;;;10.24;93.79
13612;BME280;6877;51.436;6.774;2023-02-17T06:27:27;101432.94;;;10.25;93.74
13612;BME280;6877;51.436;6.774;2023-02-17T06:29:59;101452.97;;;10.24;93.91
13612;BME280;6877;51.436;6.774;2023-02-17T06:32:26;101451.25;;;10.26;94.19
13612;BME280;6877;51.436;6.774;2023-02-17T06:34:57;101450.38;;;10.27;94.46
13612;BME280;6877;51.436;6.774;2023-02-17T06:37:24;101436.44;;;10.27;94.42
13612;BME280;6877;51.436;6.774;2023-02-17T06:39:55;101444.28;;;10.28;94.67
13612;BME280;6877;51.436;6.774;2023-02-17T06:42:26;101441.66;;;10.31;94.69
13612;BME280;6877;51.436;6.774;2023-02-17T06:44:53;101446.91;;;10.28;95.00
13612;BME280;6877;51.436;6.774;2023-02-17T06:47:19;101431.19;;;10.30;95.34
13612;BME280;6877;51.436;6.774;2023-02-17T06:49:46;101426.81;;;10.24;96.28
13612;BME280;6877;51.436;6.774;2023-02-17T06:52:12;101412.94;;;10.16;97.52
13612;BME280;6877;51.436;6.774;2023-02-17T06:54:38;101426.97;;;10.06;98.97
13612;BME280;6877;51.436;6.774;2023-02-17T06:57:05;101428.72;;;9.97;100.00
13612;BME280;6877;51.436;6.774;2023-02-17T06:59:36;101436.59;;;9.91;100.00
13612;BME280;6877;51.436;6.774;2023-02-17T07:02:12;101420.94;;;9.87;100.00
13612;BME280;6877;51.436;6.774;2023-02-17T07:04:39;101415.72;;;9.87;100.00
13612;BME280;6877;51.436;6.774;2023-02-17T07:07:07;101405.25;;;9.85;100.00
13612;BME280;6877;51.436;6.774;2023-02-17T07:09:39;101426.19;;;9.84;100.00
13612;BME280;6877;51.436;6.774;2023-02-17T07:12:10;101434.91;;;9.83;100.00
13612;BME280;6877;51.436;6.774;2023-02-17T07:14:37;101434.00;;;9.85;100.00
13612;BME280;6877;51.436;6.774;2023-02-17T07:17:08;101435.75;;;9.88;100.00
13612;BME280;6877;51.436;6.774;2023-02-17T07:19:39;101440.94;;;9.92;100.00
13612;BME280;6877;51.436;6.774;2023-02-17T07:22:06;101443.53;;;9.95;100.00
13612;BME280;6877;51.436;6.774;2023-02-17T07:24:32;101435.69;;;9.98;100.00
13612;BME280;6877;51.436;6.774;2023-02-17T07:27:05;101442.66;;;10.03;100.00
13612;BME280;6877;51.436;6.774;2023-02-17T07:29:36;101444.38;;;10.07;100.00
13612;BME280;6877;51.436;6.774;2023-02-17T07:32:03;101444.34;;;10.10;100.00
13612;BME280;6877;51.436;6.774;2023-02-17T07:34:30;101446.09;;;10.11;100.00
13612;BME280;6877;51.436;6.774;2023-02-17T07:36:56;101442.59;;;10.12;100.00
13612;BME280;6877;51.436;6.774;2023-02-17T07:39:28;101433.88;;;10.16;100.00
13612;BME280;6877;51.436;6.774;2023-02-17T07:41:59;101439.06;;;10.19;100.00
13612;BME280;6877;51.436;6.774;2023-02-17T07:44:26;101432.94;;;10.25;100.00
13612;BME280;6877;51.436;6.774;2023-02-17T07:46:53;101444.28;;;10.31;100.00
13612;BME280;6877;51.436;6.774;2023-02-17T07:49:19;101444.25;;;10.34;100.00
13612;BME280;6877;51.436;6.774;2023-02-17T07:51:46;101429.41;;;10.38;100.00
13612;BME280;6877;51.436;6.774;2023-02-17T07:54:13;101440.72;;;10.41;99.60
13612;BME280;6877;51.436;6.774;2023-02-17T07:56:40;101441.56;;;10.42;99.32
13612;BME280;6877;51.436;6.774;2023-02-17T07:59:12;101431.97;;;10.44;99.30
13612;BME280;6877;51.436;6.774;2023-02-17T08:01:44;101433.69;;;10.47;98.91
13612;BME280;6877;51.436;6.774;2023-02-17T08:04:16;101431.94;;;10.49;98.79
13612;BME280;6877;51.436;6.774;2023-02-17T08:06:47;101438.03;;;10.51;98.65
13612;BME280;6877;51.436;6.774;2023-02-17T08:09:13;101432.78;;;10.54;98.52
13612;BME280;6877;51.436;6.774;2023-02-17T08:12:04;101440.59;;;10.57;98.36
13612;BME280;6877;51.436;6.774;2023-02-17T08:14:49;101451.06;;;10.57;98.02
13612;BME280;6877;51.436;6.774;2023-02-17T08:17:15;101447.56;;;10.58;97.97
13612;BME280;6877;51.436;6.774;2023-02-17T08:19:41;101438.78;;;10.62;97.35
13612;BME280;6877;51.436;6.774;2023-02-17T08:22:08;101437.91;;;10.64;97.39
13612;BME280;6877;51.436;6.774;2023-02-17T08:24:34;101430.03;;;10.69;96.91
13612;BME280;6877;51.436;6.774;2023-02-17T08:27:06;101424.78;;;10.71;97.42
13612;BME280;6877;51.436;6.774;2023-02-17T08:29:32;101422.97;;;10.79;96.61
13612;BME280;6877;51.436;6.774;2023-02-17T08:32:04;101426.38;;;10.88;95.90
13612;BME280;6877;51.436;6.774;2023-02-17T08:34:35;101417.56;;;10.96;95.51
13612;BME280;6877;51.436;6.774;2023-02-17T08:37:07;101431.47;;;11.02;94.87
13612;BME280;6877;51.436;6.774;2023-02-17T08:39:38;101421.84;;;11.06;94.17
13612;BME280;6877;51.436;6.774;2023-02-17T08:42:05;101418.31;;;11.10;94.21
13612;BME280;6877;51.436;6.774;2023-02-17T08:44:33;101415.66;;;11.14;93.81
13612;BME280;6877;51.436;6.774;2023-02-17T08:47:01;101415.56;;;11.21;93.33
13612;BME280;6877;51.436;6.774;2023-02-17T08:49:27;101407.66;;;11.25;92.84
13612;BME280;6877;51.436;6.774;2023-02-17T08:51:58;101427.72;;;11.28;92.41
13612;BME280;6877;51.436;6.774;2023-02-17T08:54:24;101422.44;;;11.31;92.09
13612;BME280;6877;51.436;6.774;2023-02-17T08:56:51;101423.28;;;11.36;91.88
13612;BME280;6877;51.436;6.774;2023-02-17T08:59:17;101422.34;;;11.42;91.47
13612;BME280;6877;51.436;6.774;2023-02-17T09:01:44;101436.22;;;11.50;90.96
13612;BME280;6877;51.436;6.774;2023-02-17T09:04:15;101420.38;;;11.59;90.54
13612;BME280;6877;51.436;6.774;2023-02-17T09:06:50;101418.56;;;11.67;89.96
13612;BME280;6877;51.436;6.774;2023-02-17T09:09:19;101416.69;;;11.75;89.43
13612;BME280;6877;51.436;6.774;2023-02-17T09:11:47;101431.44;;;11.84;88.93
13612;BME280;6877;51.436;6.774;2023-02-17T09:14:14;101423.56;;;11.89;88.36
13612;BME280;6877;51.436;6.774;2023-02-17T09:16:40;101435.69;;;11.94;88.09
13612;BME280;6877;51.436;6.774;2023-02-17T09:19:12;101431.19;;;12.04;87.66
13612;BME280;6877;51.436;6.774;2023-02-17T09:21:38;101430.13;;;12.20;86.64
13612;BME280;6877;51.436;6.774;2023-02-17T09:24:10;101428.28;;;12.25;86.52
13612;BME280;6877;51.436;6.774;2023-02-17T09:26:36;101429.94;;;12.33;86.30
13612;BME280;6877;51.436;6.774;2023-02-17T09:29:08;101424.56;;;12.39;85.88
13612;BME280;6877;51.436;6.774;2023-02-17T09:31:35;101429.66;;;12.49;85.40
13612;BME280;6877;51.436;6.774;2023-02-17T09:34:07;101427.91;;;12.51;84.92
13612;BME280;6877;51.436;6.774;2023-02-17T09:36:37;101427.72;;;12.62;84.54
13612;BME280;6877;51.436;6.774;2023-02-17T09:39:09;101438.06;;;12.71;83.76
13612;BME280;6877;51.436;6.774;2023-02-17T09:41:42;101438.78;;;12.81;83.58
13612;BME280;6877;51.436;6.774;2023-02-17T09:44:26;101437.03;;;12.82;83.12
13612;BME280;6877;51.436;6.774;2023-02-17T09:47:09;101434.28;;;12.89;82.88
13612;BME280;6877;51.436;6.774;2023-02-17T09:50:07;101456.91;;;12.96;82.73
13612;BME280;6877;51.436;6.774;2023-02-17T09:52:46;101458.38;;;13.11;82.08
13612;BME280;6877;51.436;6.774;2023-02-17T09:55:30;101458.22;;;13.20;81.19
13612;BME280;6877;51.436;6.774;2023-02-17T10:00:38;101461.09;;;13.08;81.63
13612;BME280;6877;51.436;6.774;2023-02-17T10:03:18;101453.31;;;13.02;81.89
13612;BME280;6877;51.436;6.774;2023-02-17T10:05:54;101453.28;;;13.04;81.69
13612;BME280;6877;51.436;6.774;2023-02-17T10:08:40;101465.47;;;13.09;81.74
13612;BME280;6877;51.436;6.774;2023-02-17T10:11:43;101460.91;;;13.19;81.10
13612;BME280;6877;51.436;6.774;2023-02-17T10:14:20;101465.16;;;13.28;81.37
13612;BME280;6877;51.436;6.774;2023-02-17T10:16:52;101464.56;;;13.58;79.99
13612;BME280;6877;51.436;6.774;2023-02-17T10:19:31;101480.34;;;13.58;79.40
13612;BME280;6877;51.436;6.774;2023-02-17T10:22:18;101488.56;;;13.43;79.91
13612;BME280;6877;51.436;6.774;2023-02-17T10:24:45;101487.81;;;13.35;79.93
13612;BME280;6877;51.436;6.774;2023-02-17T10:27:38;101495.03;;;13.20;80.74
13612;BME280;6877;51.436;6.774;2023-02-17T10:30:26;101488.47;;;12.95;81.85
13612;BME280;6877;51.436;6.774;2023-02-17T10:36:31;101474.75;;;12.76;82.94
13612;BME280;6877;51.436;6.774;2023-02-17T10:38:51;101471.38;;;12.69;83.59
13612;BME280;6877;51.436;6.774;2023-02-17T10:41:23;101474.75;;;12.78;83.28
13612;BME280;6877;51.436;6.774;2023-02-17T10:43:51;101455.31;;;12.88;82.83
13612;BME280;6877;51.436;6.774;2023-02-17T10:46:28;101448.19;;;12.96;82.35
13612;BME280;6877;51.436;6.774;2023-02-17T10:48:56;101465.41;;;13.12;81.90
13612;BME280;6877;51.436;6.774;2023-02-17T10:51:26;101464.03;;;13.39;80.89
13612;BME280;6877;51.436;6.774;2023-02-17T10:54:05;101463.75;;;13.56;80.24
13612;BME280;6877;51.436;6.774;2023-02-17T10:56:45;101474.03;;;13.67;79.24
13612;BME280;6877;51.436;6.774;2023-02-17T10:59:23;101469.53;;;13.74;78.75
13612;BME280;6877;51.436;6.774;2023-02-17T11:01:57;101465.41;;;13.62;79.00
13612;BME280;6877;51.436;6.774;2023-02-17T11:04:25;101466.31;;;13.59;79.31
13612;BME280;6877;51.436;6.774;2023-02-17T11:06:53;101450.66;;;13.53;78.90
13612;BME280;6877;51.436;6.774;2023-02-17T11:09:27;101445.59;;;13.42;79.42
13612;BME280;6877;51.436;6.774;2023-02-17T11:12:11;101445.81;;;13.30;79.69
13612;BME280;6877;51.436;6.774;2023-02-17T11:14:44;101434.44;;;13.30;79.92
13612;BME280;6877;51.436;6.774;2023-02-17T11:17:35;101428.38;;;13.28;79.69
13612;BME280;6877;51.436;6.774;2023-02-17T11:20:08;101432.63;;;13.33;79.61
13612;BME280;6877;51.436;6.774;2023-02-17T11:25:55;101437.16;;;13.70;77.90
13612;BME280;6877;51.436;6.774;2023-02-17T11:28:22;101438.38;;;13.96;76.79
13612;BME280;6877;51.436;6.774;2023-02-17T11:30:56;101431.19;;;14.04;76.30
13612;BME280;6877;51.436;6.774;2023-02-17T11:33:30;101429.81;;;14.26;75.28
13612;BME280;6877;51.436;6.774;2023-02-17T11:35:57;101429.03;;;14.21;75.15
13612;BME280;6877;51.436;6.774;2023-02-17T11:38:32;101442.25;;;14.20;75.18
13612;BME280;6877;51.436;6.774;2023-02-17T11:41:05;101428.44;;;14.08;75.06
13612;BME280;6877;51.436;6.774;2023-02-17T11:43:38;101432.72;;;14.14;74.81
13612;BME280;6877;51.436;6.774;2023-02-17T11:59:58;101408.63;;;13.94;75.25
13612;BME280;6877;51.436;6.774;2023-02-17T12:10:58;101391.16;;;14.27;74.13
13612;BME280;6877;51.436;6.774;2023-02-17T12:13:59;101410.44;;;14.29;74.26
13612;BME280;6877;51.436;6.774;2023-02-17T12:16:43;101422.25;;;14.48;73.80
13612;BME280;6877;51.436;6.774;2023-02-17T12:22:05;101414.22;;;14.90;72.35
13612;BME280;6877;51.436;6.774;2023-02-17T12:30:04;101419.78;;;14.79;72.62
13612;BME280;6877;51.436;6.774;2023-02-17T12:33:16;101419.81;;;14.78;72.50
13612;BME280;6877;51.436;6.774;2023-02-17T12:35:54;101413.19;;;14.62;72.86
13612;BME280;6877;51.436;6.774;2023-02-17T12:38:35;101405.41;;;14.57;73.17
13612;BME280;6877;51.436;6.774;2023-02-17T12:41:16;101402.88;;;14.52;73.35
13612;BME280;6877;51.436;6.774;2023-02-17T12:43:55;101396.00;;;14.45;73.53
13612;BME280;6877;51.436;6.774;2023-02-17T12:46:51;101391.88;;;14.35;74.13
13612;BME280;6877;51.436;6.774;2023-02-17T12:49:24;101417.28;;;14.36;74.08
13612;BME280;6877;51.436;6.774;2023-02-17T12:52:12;101410.31;;;14.35;74.23
13612;BME280;6877;51.436;6.774;2023-02-17T12:54:48;101419.00;;;14.37;74.06
13612;BME280;6877;51.436;6.774;2023-02-17T12:57:21;101414.69;;;14.34;74.27
13612;BME280;6877;51.436;6.774;2023-02-17T12:59:51;101399.91;;;14.29;74.38
13612;BME280;6877;51.436;6.774;2023-02-17T13:02:21;101413.16;;;14.24;74.56
13612;BME280;6877;51.436;6.774;2023-02-17T13:04:53;101413.22;;;14.23;74.80
13612;BME280;6877;51.436;6.774;2023-02-17T13:07:41;101414.91;;;14.25;74.90
13612;BME280;6877;51.436;6.774;2023-02-17T13:10:39;101412.16;;;14.30;74.66
13612;BME280;6877;51.436;6.774;2023-02-17T13:13:25;101420.13;;;14.27;74.94
13612;BME280;6877;51.436;6.774;2023-02-17T13:16:08;101416.84;;;14.17;75.30
13612;BME280;6877;51.436;6.774;2023-02-17T13:18:44;101423.94;;;14.13;75.46
13612;BME280;6877;51.436;6.774;2023-02-17T13:26:39;101422.19;;;14.14;75.86
13612;BME280;6877;51.436;6.774;2023-02-17T13:31:55;101408.94;;;14.19;75.71
13612;BME280;6877;51.436;6.774;2023-02-17T13:34:43;101418.41;;;14.26;75.60
13612;BME280;6877;51.436;6.774;2023-02-17T13:37:37;101425.31;;;14.31;75.54
13612;BME280;6877;51.436;6.774;2023-02-17T13:43:07;101432.56;;;14.20;75.43
13612;BME280;6877;51.436;6.774;2023-02-17T13:45:51;101422.97;;;14.18;74.93
13612;BME280;6877;51.436;6.774;2023-02-17T13:48:33;101448.56;;;14.11;75.07
13612;BME280;6877;51.436;6.774;2023-02-17T13:51:04;101456.66;;;14.02;75.59
13612;BME280;6877;51.436;6.774;2023-02-17T13:53:39;101463.94;;;13.89;75.85
13612;BME280;6877;51.436;6.774;2023-02-17T13:56:10;101462.34;;;13.82;76.09
13612;BME280;6877;51.436;6.774;2023-02-17T13:58:39;101480.03;;;13.75;76.36
13612;BME280;6877;51.436;6.774;2023-02-17T14:01:13;101469.63;;;13.67;76.63
13612;BME280;6877;51.436;6.774;2023-02-17T14:03:44;101475.03;;;13.61;76.82
13612;BME280;6877;51.436;6.774;2023-02-17T14:06:31;101490.00;;;13.58;77.17
13612;BME280;6877;51.436;6.774;2023-02-17T14:09:33;101505.88;;;13.52;77.30
13612;BME280;6877;51.436;6.774;2023-02-17T14:12:06;101501.56;;;13.49;77.67
13612;BME280;6877;51.436;6.774;2023-02-17T14:14:36;101506.03;;;13.44;77.70
13612;BME280;6877;51.436;6.774;2023-02-17T14:17:28;101500.84;;;13.39;78.12
13612;BME280;6877;51.436;6.774;2023-02-17T14:19:55;101496.56;;;13.35;78.28
13612;BME280;6877;51.436;6.774;2023-02-17T14:25:05;101512.44;;;13.31;78.40
13612;BME280;6877;51.436;6.774;2023-02-17T14:27:48;101512.47;;;13.28;78.75
13612;BME280;6877;51.436;6.774;2023-02-17T14:38:40;101526.72;;;13.11;79.69
13612;BME280;6877;51.436;6.774;2023-02-17T14:41:08;101545.16;;;13.10;79.91
13612;BME280;6877;51.436;6.774;2023-02-17T14:43:40;101538.22;;;13.06;80.08
13612;BME280;6877;51.436;6.774;2023-02-17T14:46:06;101550.56;;;13.01;81.02
13612;BME280;6877;51.436;6.774;2023-02-17T14:48:37;101552.50;;;12.88;81.98
13612;BME280;6877;51.436;6.774;2023-02-17T14:51:14;101529.22;;;12.63;85.56
13612;BME280;6877;51.436;6.774;2023-02-17T14:53:41;101518.31;;;12.31;88.33
13612;BME280;6877;51.436;6.774;2023-02-17T14:56:25;101526.47;;;12.09;89.32
13612;BME280;6877;51.436;6.774;2023-02-17T14:58:53;101547.56;;;12.00;89.93